Carpenter, South Dakota
Current Conditions -  °F | °C
As of 9:55 PM on Wednesday 22 Oct 2014 (Local Time) from KHON Reporting Station
Clear Clear  
Wind Chill: 51°   Ceiling: Unl
Heat Index: 51°   Visibility: 10mi
Dew Point: 49°   Wind: 7mph
Humidity: 92%   Direction: 210°SSW
Pressure: 29.98"   Gusts: NA
Location:  44.64°N, 97.92°W
Report Text: KHON 230255Z AUTO 21006KT 10SM CLR 11/09 A2998 RMK AO2 SLP155 T01060094 51006
Loading
Personal Weather Stations






























Interactive Weather Map
Tropical Storm Tracking
New forecast layout! Learn more

10-Day Weather Forecast

Advertisements
Track Severe Weather on mobile